createdAt,value
2023-04-24T00:00:46.100Z,4.00
2023-04-24T00:03:13.951Z,4.35
2023-04-24T00:05:42.181Z,4.50
2023-04-24T00:08:09.729Z,4.25
2023-04-24T00:10:38.479Z,4.80
2023-04-24T00:13:06.143Z,5.10
2023-04-24T00:15:33.954Z,4.07
2023-04-24T00:18:02.210Z,4.35
2023-04-24T00:20:30.360Z,4.25
2023-04-24T00:22:57.749Z,4.13
2023-04-24T00:25:25.184Z,4.43
2023-04-24T00:27:53.929Z,4.90
2023-04-24T00:30:21.490Z,5.03
2023-04-24T00:32:48.937Z,4.57
2023-04-24T00:35:16.569Z,5.00
2023-04-24T00:37:43.988Z,4.70
2023-04-24T00:40:12.564Z,4.40
2023-04-24T00:42:41.476Z,4.40
2023-04-24T00:45:11.066Z,4.53
2023-04-24T00:47:39.389Z,4.30
2023-04-24T00:50:08.298Z,4.93
2023-04-24T00:52:36.034Z,4.78
2023-04-24T00:55:06.676Z,4.85
2023-04-24T00:57:34.092Z,4.50
2023-04-24T01:00:01.499Z,5.30
2023-04-24T01:02:30.504Z,4.70
2023-04-24T01:04:58.139Z,4.90
2023-04-24T01:07:26.680Z,5.03
2023-04-24T01:09:54.141Z,5.53
2023-04-24T01:12:21.670Z,4.80
2023-04-24T01:14:49.084Z,4.72
2023-04-24T01:17:16.599Z,4.82
2023-04-24T01:19:46.210Z,4.85
2023-04-24T01:22:15.974Z,4.50
2023-04-24T01:24:43.714Z,5.22
2023-04-24T01:27:12.526Z,4.88
2023-04-24T01:29:40.151Z,4.80
2023-04-24T01:32:08.211Z,5.72
2023-04-24T01:34:36.128Z,5.10
2023-04-24T01:37:03.619Z,4.90
2023-04-24T01:39:32.358Z,5.18
2023-04-24T01:41:59.931Z,5.00
2023-04-24T01:44:28.107Z,4.88
2023-04-24T01:46:57.155Z,4.43
2023-04-24T01:49:24.661Z,5.20
2023-04-24T01:51:52.041Z,5.18
2023-04-24T01:54:19.483Z,4.80
2023-04-24T01:56:48.594Z,5.10
2023-04-24T01:59:18.851Z,4.80
2023-04-24T02:01:46.304Z,4.63
2023-04-24T02:04:14.641Z,4.65
2023-04-24T02:06:42.138Z,4.70
2023-04-24T02:09:09.818Z,5.57
2023-04-24T02:11:37.188Z,5.00
2023-04-24T02:14:05.919Z,4.95
2023-04-24T02:16:34.800Z,5.18
2023-04-24T02:19:02.255Z,4.95
2023-04-24T02:21:29.723Z,5.13
2023-04-24T02:23:57.102Z,5.63
2023-04-24T02:26:24.928Z,4.70
2023-04-24T02:28:52.391Z,5.63
2023-04-24T02:31:21.168Z,5.20
2023-04-24T02:33:48.624Z,5.40
2023-04-24T02:36:16.023Z,5.72
2023-04-24T02:38:43.468Z,5.85
2023-04-24T02:41:10.902Z,5.50
2023-04-24T02:43:38.326Z,5.05
2023-04-24T02:46:05.897Z,5.70
2023-04-24T02:48:34.648Z,6.22
2023-04-24T02:51:02.088Z,5.55
2023-04-24T02:53:30.820Z,5.18
2023-04-24T02:55:58.251Z,5.43
2023-04-24T02:58:25.994Z,5.88
2023-04-24T03:00:55.538Z,5.60
2023-04-24T03:03:23.185Z,5.53
2023-04-24T03:05:52.129Z,5.55
2023-04-24T03:08:19.546Z,5.63
2023-04-24T03:10:48.300Z,6.25
2023-04-24T03:13:16.997Z,5.65
2023-04-24T03:15:44.440Z,5.57
2023-04-24T03:18:11.955Z,5.75
2023-04-24T03:20:39.351Z,5.50
2023-04-24T03:23:08.043Z,5.80
2023-04-24T03:25:35.513Z,6.25
2023-04-24T03:28:02.875Z,5.70
2023-04-24T03:30:30.457Z,6.57
2023-04-24T03:32:57.945Z,6.03
2023-04-24T03:35:25.588Z,6.55
2023-04-24T03:37:52.986Z,6.32
2023-04-24T03:40:22.088Z,5.95
2023-04-24T03:42:49.457Z,6.00
2023-04-24T03:45:16.857Z,6.22
2023-04-24T03:47:44.277Z,6.25
2023-04-24T03:50:13.021Z,5.90
2023-04-24T03:52:40.587Z,6.45
2023-04-24T03:55:09.072Z,6.47
2023-04-24T03:57:37.764Z,6.55
2023-04-24T04:00:07.208Z,7.03
2023-04-24T04:02:34.721Z,6.10
2023-04-24T04:05:03.125Z,6.20
2023-04-24T04:07:30.881Z,5.95
2023-04-24T04:09:58.333Z,6.22
2023-04-24T04:12:25.769Z,5.95
2023-04-24T04:14:54.473Z,5.97
2023-04-24T04:17:21.825Z,5.97
2023-04-24T04:19:49.173Z,6.38
2023-04-24T04:22:16.580Z,5.65
2023-04-24T04:24:44.225Z,6.28
2023-04-24T04:27:11.854Z,5.85
2023-04-24T04:29:41.110Z,5.93
2023-04-24T04:32:10.163Z,6.07
2023-04-24T04:34:38.589Z,5.57
2023-04-24T04:37:06.851Z,5.57
2023-04-24T04:39:34.385Z,5.75
2023-04-24T04:42:02.004Z,5.30
2023-04-24T04:44:30.618Z,5.40
2023-04-24T04:47:00.108Z,5.10
2023-04-24T04:49:29.772Z,4.97
2023-04-24T04:51:57.479Z,4.50
2023-04-24T04:54:24.970Z,4.93
2023-04-24T04:56:52.578Z,5.18
2023-04-24T04:59:20.101Z,4.20
2023-04-24T05:01:47.539Z,3.85
2023-04-24T05:04:15.132Z,3.40
2023-04-24T05:06:44.040Z,2.97
2023-04-24T05:09:11.475Z,2.75
2023-04-24T05:11:38.816Z,2.58
2023-04-24T05:14:06.262Z,3.67
2023-04-24T05:16:33.738Z,3.10
2023-04-24T05:19:01.682Z,3.45
2023-04-24T05:21:29.078Z,3.13
2023-04-24T05:23:57.766Z,2.90
2023-04-24T05:26:25.235Z,2.55
2023-04-24T05:28:52.624Z,2.70
2023-04-24T05:31:20.057Z,2.25
2023-04-24T05:33:47.460Z,2.47
2023-04-24T05:36:14.850Z,2.50
2023-04-24T05:38:42.254Z,2.67
2023-04-24T05:41:10.965Z,3.30
2023-04-24T05:43:38.327Z,2.63
2023-04-24T05:46:05.813Z,2.45
2023-04-24T05:48:33.254Z,2.30
2023-04-24T05:51:00.628Z,2.30
2023-04-24T05:53:28.038Z,2.28
2023-04-24T05:55:55.483Z,2.65
2023-04-24T05:58:24.144Z,2.33
2023-04-24T06:00:51.533Z,2.25
2023-04-24T06:03:19.091Z,2.28
2023-04-24T06:05:46.758Z,2.10
2023-04-24T06:08:14.227Z,1.55
2023-04-24T06:10:42.210Z,1.48
2023-04-24T06:13:09.781Z,1.42
2023-04-24T06:15:39.155Z,1.17
2023-04-24T06:18:06.718Z,0.90
2023-04-24T06:20:34.184Z,1.10
2023-04-24T06:23:01.644Z,1.00
2023-04-24T06:25:29.928Z,1.20
2023-04-24T06:27:57.810Z,1.10
2023-04-24T06:30:25.646Z,1.00
2023-04-24T06:32:55.738Z,1.10
2023-04-24T06:35:23.290Z,1.27
2023-04-24T06:37:51.188Z,1.30
2023-04-24T06:40:19.501Z,1.10
2023-04-24T06:42:46.996Z,1.23
2023-04-24T06:45:14.371Z,1.00
2023-04-24T06:47:41.795Z,1.02
2023-04-24T06:50:12.376Z,1.00
2023-04-24T06:52:39.829Z,1.00
2023-04-24T06:55:08.456Z,1.00
2023-04-24T06:57:35.978Z,0.93
2023-04-24T07:00:04.398Z,1.23
2023-04-24T07:02:31.914Z,1.08
2023-04-24T07:04:59.348Z,1.10
2023-04-24T07:07:28.589Z,1.08
2023-04-24T07:09:57.292Z,1.00
2023-04-24T07:12:24.784Z,1.10
2023-04-24T07:14:52.635Z,0.98
2023-04-24T07:17:20.070Z,0.90
2023-04-24T07:19:47.528Z,1.00
2023-04-24T07:22:17.788Z,0.90
2023-04-24T07:24:46.833Z,1.00
2023-04-24T07:27:15.928Z,1.00
2023-04-24T07:29:43.922Z,1.02
2023-04-24T07:32:11.921Z,0.95
2023-04-24T07:34:39.353Z,0.80
2023-04-24T07:37:06.938Z,0.90
2023-04-24T07:39:34.350Z,0.73
2023-04-24T07:42:03.255Z,0.82
2023-04-24T07:44:30.980Z,0.70
2023-04-24T07:46:58.536Z,1.05
2023-04-24T07:49:26.015Z,0.80
2023-04-24T07:51:53.412Z,1.00
2023-04-24T07:54:21.033Z,0.90
2023-04-24T07:56:48.461Z,0.80
2023-04-24T07:59:17.204Z,0.90
2023-04-24T08:01:44.589Z,0.90
2023-04-24T08:04:12.073Z,0.80
2023-04-24T08:06:39.617Z,1.05
2023-04-24T08:09:06.995Z,1.00
2023-04-24T08:11:34.458Z,0.82
2023-04-24T08:14:02.052Z,0.85
2023-04-24T08:16:30.820Z,0.90
2023-04-24T08:18:58.309Z,0.60
2023-04-24T08:21:27.285Z,0.80
2023-04-24T08:23:54.872Z,0.85
2023-04-24T08:26:22.255Z,0.90
2023-04-24T08:28:49.658Z,0.90
2023-04-24T08:31:17.108Z,1.08
2023-04-24T08:33:46.806Z,0.95
2023-04-24T08:36:14.415Z,0.88
2023-04-24T08:38:43.130Z,1.10
2023-04-24T08:41:11.486Z,0.82
2023-04-24T08:43:39.257Z,0.60
2023-04-24T08:46:11.584Z,0.75
2023-04-24T08:48:40.127Z,0.60
2023-04-24T08:51:10.583Z,0.85
2023-04-24T08:53:38.433Z,0.70
2023-04-24T08:56:06.127Z,0.80
2023-04-24T08:58:33.675Z,0.88
2023-04-24T09:01:01.614Z,0.90
2023-04-24T09:03:30.702Z,0.80
2023-04-24T09:05:59.768Z,0.82
2023-04-24T09:08:30.151Z,0.60
2023-04-24T09:10:59.161Z,0.80
2023-04-24T09:13:26.789Z,1.20
2023-04-24T09:15:55.060Z,1.02
2023-04-24T09:18:22.470Z,0.70
2023-04-24T09:20:59.655Z,0.70
2023-04-24T09:23:30.052Z,0.90
2023-04-24T09:25:58.248Z,0.80
2023-04-24T09:28:33.465Z,1.02
2023-04-24T09:31:05.433Z,0.70
2023-04-24T09:33:32.923Z,0.90
2023-04-24T09:36:00.503Z,0.90
2023-04-24T09:38:37.464Z,0.75
2023-04-24T09:41:07.346Z,0.80
2023-04-24T09:43:35.193Z,0.75
2023-04-24T09:46:09.581Z,1.00
2023-04-24T09:48:38.806Z,0.70
2023-04-24T09:51:11.428Z,0.90
2023-04-24T09:53:41.214Z,0.90
2023-04-24T09:56:10.043Z,1.35
2023-04-24T09:58:38.029Z,0.80
2023-04-24T10:01:06.361Z,0.80
2023-04-24T10:03:34.630Z,0.70
2023-04-24T10:06:02.442Z,0.63
2023-04-24T10:08:35.352Z,0.75
2023-04-24T10:11:04.117Z,0.77
2023-04-24T10:13:32.300Z,0.60
2023-04-24T10:16:01.035Z,0.70
2023-04-24T10:18:29.072Z,0.70
2023-04-24T10:20:57.050Z,0.63
2023-04-24T10:23:25.060Z,0.70
2023-04-24T10:25:52.864Z,0.77
2023-04-24T10:28:22.743Z,0.90
2023-04-24T10:30:51.405Z,0.70
2023-04-24T10:33:19.300Z,0.80
2023-04-24T10:35:50.621Z,1.05
2023-04-24T10:38:25.032Z,0.70
2023-04-24T10:40:52.496Z,0.95
2023-04-24T10:43:22.004Z,0.70
2023-04-24T10:46:02.990Z,0.75
2023-04-24T10:48:30.935Z,0.80
2023-04-24T10:50:58.359Z,0.70
2023-04-24T10:53:28.871Z,0.85
2023-04-24T10:56:00.958Z,0.90
2023-04-24T10:58:41.141Z,0.68
2023-04-24T11:01:09.069Z,0.90
2023-04-24T11:03:38.478Z,1.00
2023-04-24T11:06:08.079Z,0.75
2023-04-24T11:08:44.195Z,0.90
2023-04-24T11:11:13.763Z,0.90
2023-04-24T11:14:05.154Z,0.95
2023-04-24T11:16:35.118Z,0.70
2023-04-24T11:19:04.179Z,1.00
2023-04-24T11:21:42.113Z,0.80
2023-04-24T11:24:26.386Z,0.70
2023-04-24T11:26:56.262Z,0.70
2023-04-24T11:29:25.854Z,0.98
2023-04-24T11:31:53.429Z,1.02
2023-04-24T11:34:20.921Z,0.75
2023-04-24T11:36:49.040Z,0.85
2023-04-24T11:39:17.066Z,0.77
2023-04-24T11:41:44.541Z,1.15
2023-04-24T11:44:12.585Z,0.95
2023-04-24T11:46:41.506Z,1.05
2023-04-24T11:49:09.394Z,0.65
2023-04-24T11:51:50.970Z,1.10
2023-04-24T11:54:20.371Z,1.08
2023-04-24T11:56:48.578Z,1.00
2023-04-24T11:59:16.043Z,1.00
2023-04-24T12:01:48.183Z,0.80
2023-04-24T12:04:16.943Z,0.73
2023-04-24T12:07:02.236Z,1.00
2023-04-24T12:09:29.754Z,0.90
2023-04-24T12:11:57.977Z,0.63
2023-04-24T12:14:25.664Z,0.70
2023-04-24T12:16:54.519Z,0.82
2023-04-24T12:19:22.668Z,1.10
2023-04-24T12:22:02.181Z,0.80
2023-04-24T12:24:29.655Z,0.80
2023-04-24T12:26:57.348Z,1.00
2023-04-24T12:29:25.521Z,1.00
2023-04-24T12:31:54.766Z,0.98
2023-04-24T12:34:23.122Z,0.80
2023-04-24T12:36:50.529Z,0.90
2023-04-24T12:39:18.432Z,1.00
2023-04-24T12:41:57.033Z,0.90
2023-04-24T12:44:31.256Z,1.00
2023-04-24T12:47:00.115Z,1.20
2023-04-24T12:49:27.718Z,1.00
2023-04-24T12:51:55.623Z,1.30
2023-04-24T12:54:23.020Z,0.82
2023-04-24T12:56:50.614Z,1.10
2023-04-24T12:59:18.128Z,1.20
2023-04-24T13:01:45.929Z,1.20
2023-04-24T13:04:14.961Z,1.00
2023-04-24T13:06:42.410Z,1.10
2023-04-24T13:09:10.762Z,1.15
2023-04-24T13:11:38.146Z,1.20
2023-04-24T13:14:05.571Z,0.85
2023-04-24T13:16:32.977Z,1.00
2023-04-24T13:19:00.461Z,1.20
2023-04-24T13:21:29.204Z,0.90
2023-04-24T13:23:57.045Z,1.00
2023-04-24T13:26:24.573Z,1.00
2023-04-24T13:28:52.061Z,1.00
2023-04-24T13:31:19.545Z,1.10
2023-04-24T13:33:46.951Z,1.00
2023-04-24T13:36:14.404Z,1.27
2023-04-24T13:38:43.122Z,1.20
2023-04-24T13:41:10.694Z,0.98
2023-04-24T13:43:38.198Z,1.25
2023-04-24T13:46:05.909Z,1.23
2023-04-24T13:48:33.440Z,1.00
2023-04-24T13:51:00.912Z,1.08
2023-04-24T13:53:28.613Z,1.17
2023-04-24T13:55:57.394Z,1.00
2023-04-24T13:58:24.759Z,1.10
2023-04-24T14:00:52.369Z,1.00
2023-04-24T14:03:19.884Z,1.20
2023-04-24T14:05:47.371Z,1.17
2023-04-24T14:08:14.807Z,1.15
2023-04-24T14:10:42.199Z,1.20
2023-04-24T14:13:11.041Z,1.20
2023-04-24T14:15:38.574Z,1.20
2023-04-24T14:18:06.592Z,1.10
2023-04-24T14:20:34.001Z,1.10
2023-04-24T14:23:01.422Z,1.25
2023-04-24T14:25:29.043Z,1.13
2023-04-24T14:27:56.461Z,1.00
2023-04-24T14:30:25.306Z,1.60
2023-04-24T14:32:52.851Z,1.00
2023-04-24T14:35:20.267Z,1.00
2023-04-24T14:37:49.295Z,1.00
2023-04-24T14:42:48.312Z,1.08
2023-04-24T14:45:15.917Z,1.25
2023-04-24T14:47:44.729Z,1.15
2023-04-24T14:50:13.412Z,1.35
2023-04-24T14:52:41.199Z,1.00
2023-04-24T14:55:09.429Z,1.40
2023-04-24T14:57:37.824Z,1.10
2023-04-24T15:00:07.120Z,1.25
2023-04-24T15:02:35.073Z,1.30
2023-04-24T15:05:05.295Z,1.20
2023-04-24T15:07:33.986Z,1.45
2023-04-24T15:10:01.391Z,1.00
2023-04-24T15:12:29.571Z,1.23
2023-04-24T15:14:57.464Z,1.30
2023-04-24T15:17:24.939Z,1.10
2023-04-24T15:19:52.318Z,1.00
2023-04-24T15:22:21.380Z,1.17
2023-04-24T15:24:48.863Z,1.05
2023-04-24T15:27:16.322Z,0.70
2023-04-24T15:29:43.862Z,1.00
2023-04-24T15:32:11.381Z,1.00
2023-04-24T15:34:38.824Z,1.27
2023-04-24T15:37:06.272Z,1.08
2023-04-24T15:39:35.077Z,1.13
2023-04-24T15:42:02.571Z,1.08
2023-04-24T15:44:30.085Z,1.00
2023-04-24T15:46:57.480Z,1.27
2023-04-24T15:49:24.945Z,1.00
2023-04-24T15:51:52.400Z,1.20
2023-04-24T15:54:19.833Z,1.17
2023-04-24T15:56:48.554Z,1.20
2023-04-24T15:59:16.559Z,1.00
2023-04-24T16:01:44.125Z,1.40
2023-04-24T16:04:11.883Z,1.30
2023-04-24T16:06:39.655Z,1.50
2023-04-24T16:09:08.513Z,1.40
2023-04-24T16:11:37.638Z,1.38
2023-04-24T16:14:10.721Z,1.27
2023-04-24T16:16:38.429Z,1.38
2023-04-24T16:19:06.890Z,1.35
2023-04-24T16:21:34.861Z,0.85
2023-04-24T16:24:02.273Z,1.23
2023-04-24T16:26:29.795Z,1.15
2023-04-24T16:28:57.273Z,1.33
2023-04-24T16:31:26.912Z,1.17
2023-04-24T16:33:54.342Z,1.20
2023-04-24T16:36:22.435Z,0.90
2023-04-24T16:38:50.840Z,0.90
2023-04-24T16:41:18.864Z,1.17
2023-04-24T16:43:46.269Z,0.93
2023-04-24T16:46:14.212Z,1.10
2023-04-24T16:48:44.370Z,1.10
2023-04-24T16:51:11.850Z,0.90
2023-04-24T16:53:39.385Z,1.10
2023-04-24T16:56:07.096Z,1.00
2023-04-24T16:58:34.626Z,1.05
2023-04-24T17:01:02.070Z,1.05
2023-04-24T17:03:29.526Z,1.00
2023-04-24T17:05:58.375Z,1.25
2023-04-24T17:08:27.724Z,1.10
2023-04-24T17:10:55.309Z,1.08
2023-04-24T17:13:22.713Z,0.98
2023-04-24T17:15:50.125Z,0.88
2023-04-24T17:18:19.380Z,0.98
2023-04-24T17:20:46.948Z,1.20
2023-04-24T17:23:17.849Z,1.15
2023-04-24T17:25:48.345Z,1.25
2023-04-24T17:28:25.872Z,0.95
2023-04-24T17:30:55.426Z,1.40
2023-04-24T17:33:23.316Z,1.50
2023-04-24T17:35:51.288Z,1.10
2023-04-24T17:38:20.154Z,1.10
2023-04-24T17:40:47.560Z,1.08
2023-04-24T17:43:17.908Z,0.88
2023-04-24T17:45:46.016Z,0.80
2023-04-24T17:48:14.059Z,0.90
2023-04-24T17:50:42.137Z,0.90
2023-04-24T17:53:10.725Z,1.00
2023-04-24T17:55:39.999Z,0.75
2023-04-24T17:58:07.592Z,0.77
2023-04-24T18:00:35.305Z,0.65
2023-04-24T18:03:04.053Z,0.60
2023-04-24T18:05:32.888Z,0.70
2023-04-24T18:08:01.532Z,0.65
2023-04-24T18:10:31.388Z,1.13
2023-04-24T18:13:00.418Z,1.60
2023-04-24T18:15:27.778Z,0.70
2023-04-24T18:17:55.249Z,0.82
2023-04-24T18:20:22.662Z,0.82
2023-04-24T18:22:50.122Z,3.42
2023-04-24T18:25:17.754Z,2.80
2023-04-24T18:27:45.177Z,0.70
2023-04-24T18:30:15.006Z,0.63
2023-04-24T18:32:42.895Z,0.70
2023-04-24T18:35:11.391Z,0.60
2023-04-24T18:37:40.420Z,1.20
2023-04-24T18:40:10.233Z,0.73
2023-04-24T18:42:37.708Z,0.70
2023-04-24T18:45:05.781Z,0.93
2023-04-24T18:47:34.507Z,0.80
2023-04-24T18:50:01.896Z,0.68
2023-04-24T18:52:29.392Z,0.60
2023-04-24T18:54:57.115Z,1.70
2023-04-24T18:57:24.591Z,0.82
2023-04-24T18:59:51.958Z,1.17
2023-04-24T19:02:19.631Z,0.90
2023-04-24T19:04:48.444Z,0.60
2023-04-24T19:07:15.850Z,0.95
2023-04-24T19:09:43.296Z,1.30
2023-04-24T19:12:10.689Z,0.98
2023-04-24T19:14:38.077Z,0.90
2023-04-24T19:17:05.692Z,1.60
2023-04-24T19:19:33.383Z,1.50
2023-04-24T19:22:02.131Z,0.93
2023-04-24T19:24:29.683Z,1.10
2023-04-24T19:26:58.080Z,1.30
2023-04-24T19:29:27.337Z,0.80
2023-04-24T19:31:55.546Z,0.90
2023-04-24T19:34:22.997Z,1.02
2023-04-24T19:36:50.879Z,0.70
2023-04-24T19:39:19.893Z,0.70
2023-04-24T19:41:47.249Z,0.80
2023-04-24T19:44:15.546Z,0.80
2023-04-24T19:46:43.032Z,0.90
2023-04-24T19:49:10.559Z,1.00
2023-04-24T19:51:38.604Z,1.10
2023-04-24T19:54:06.676Z,0.90
2023-04-24T19:56:35.519Z,3.35
2023-04-24T19:59:02.936Z,3.30
2023-04-24T20:01:30.591Z,4.28
2023-04-24T20:03:58.433Z,2.10
2023-04-24T20:06:26.096Z,2.63
2023-04-24T20:08:53.525Z,2.33
2023-04-24T20:11:20.954Z,1.77
2023-04-24T20:13:49.693Z,2.10
2023-04-24T20:16:17.243Z,2.03
2023-04-24T20:18:44.698Z,1.83
2023-04-24T20:21:12.087Z,1.90
2023-04-24T20:23:39.533Z,1.90
2023-04-24T20:26:08.352Z,1.33
2023-04-24T20:28:35.876Z,1.58
2023-04-24T20:31:04.977Z,1.42
2023-04-24T20:33:32.423Z,1.55
2023-04-24T20:35:59.796Z,1.60
2023-04-24T20:38:27.241Z,1.60
2023-04-24T20:40:58.104Z,2.08
2023-04-24T20:43:28.673Z,2.00
2023-04-24T20:45:57.833Z,1.45
2023-04-24T20:48:27.147Z,1.65
2023-04-24T20:50:54.665Z,1.60
2023-04-24T20:53:22.345Z,1.73
2023-04-24T20:55:49.858Z,2.08
2023-04-24T20:58:18.336Z,1.80
2023-04-24T21:00:46.803Z,1.70
2023-04-24T21:03:14.698Z,2.00
2023-04-24T21:05:43.503Z,2.00
2023-04-24T21:08:10.930Z,1.92
2023-04-24T21:10:38.333Z,1.90
2023-04-24T21:13:05.751Z,1.70
2023-04-24T21:15:34.249Z,1.85
2023-04-24T21:18:01.760Z,2.30
2023-04-24T21:20:29.215Z,1.90
2023-04-24T21:22:58.017Z,1.98
2023-04-24T21:25:26.100Z,1.85
2023-04-24T21:27:54.037Z,2.05
2023-04-24T21:30:22.544Z,2.10
2023-04-24T21:32:51.910Z,2.22
2023-04-24T21:35:19.808Z,2.20
2023-04-24T21:37:47.195Z,2.03
2023-04-24T21:40:16.268Z,1.90
2023-04-24T21:42:43.714Z,2.45
2023-04-24T21:45:12.200Z,2.20
2023-04-24T21:47:39.652Z,2.30
2023-04-24T21:50:08.354Z,2.40
2023-04-24T21:52:35.945Z,2.97
2023-04-24T21:55:03.394Z,2.38
2023-04-24T21:57:32.215Z,2.40
2023-04-24T22:00:00.060Z,2.25
2023-04-24T22:02:27.721Z,2.15
2023-04-24T22:04:56.225Z,2.50
2023-04-24T22:07:24.229Z,2.25
2023-04-24T22:09:51.686Z,2.20
2023-04-24T22:12:19.404Z,2.22
2023-04-24T22:14:48.170Z,2.08
2023-04-24T22:17:17.288Z,2.20
2023-04-24T22:19:44.698Z,3.03
2023-04-24T22:22:12.167Z,2.50
2023-04-24T22:24:39.557Z,2.15
2023-04-24T22:27:06.943Z,2.05
2023-04-24T22:29:34.330Z,2.10
2023-04-24T22:32:03.071Z,2.30
2023-04-24T22:34:30.520Z,2.10
2023-04-24T22:36:57.890Z,2.50
2023-04-24T22:39:25.541Z,2.38
2023-04-24T22:41:53.365Z,2.38
2023-04-24T22:44:21.034Z,2.22
2023-04-24T22:46:48.498Z,2.30
2023-04-24T22:49:17.257Z,2.05
2023-04-24T22:51:45.308Z,2.00
2023-04-24T22:54:12.895Z,2.40
2023-04-24T22:56:40.296Z,2.35
2023-04-24T22:59:07.678Z,2.30
2023-04-24T23:01:35.055Z,2.53
2023-04-24T23:04:02.615Z,2.10
2023-04-24T23:06:32.066Z,2.50
2023-04-24T23:08:59.465Z,2.75
2023-04-24T23:11:26.841Z,1.98
2023-04-24T23:13:54.367Z,2.30
2023-04-24T23:16:22.469Z,2.17
2023-04-24T23:18:49.891Z,2.33
2023-04-24T23:21:17.343Z,2.50
2023-04-24T23:23:46.051Z,2.50
2023-04-24T23:26:13.891Z,2.58
2023-04-24T23:28:41.694Z,2.70
2023-04-24T23:31:09.100Z,2.20
2023-04-24T23:33:36.462Z,2.30
2023-04-24T23:36:03.989Z,2.33
2023-04-24T23:38:42.861Z,2.50
2023-04-24T23:41:18.217Z,2.72
2023-04-24T23:43:45.608Z,2.45
2023-04-24T23:46:13.276Z,2.53
2023-04-24T23:48:40.796Z,3.15
2023-04-24T23:51:08.391Z,2.55
2023-04-24T23:53:35.943Z,2.60
2023-04-24T23:56:03.426Z,2.42
2023-04-24T23:58:32.120Z,2.55
